Time;durP1;ratioP1;P1;durP2;ratioP2;P2;SDS_P1;SDS_P2;PMS_P1;PMS_P2;Temp;Humidity;BMP_temperature;BMP_pressure;BME280_temperature;BME280_humidity;BME280_pressure;Samples;Min_cycle;Max_cycle;Signal;HPM_P1;HPM_P2
2022/09/05 00:02:32;;;;;;;5.73;4.50;;;16.20;84.30;;;;;;5101077;27;20229;-61
2022/09/05 00:05:44;;;;;;;4.30;4.00;;;16.20;84.30;;;;;;5097626;28;20188;-61
2022/09/05 00:08:27;;;;;;;5.93;4.43;;;16.10;84.50;;;;;;5085212;28;20641;-61
2022/09/05 00:11:15;;;;;;;6.37;4.33;;;16.10;84.30;;;;;;5105087;28;20184;-61
2022/09/05 00:14:10;;;;;;;6.60;4.53;;;16.10;84.30;;;;;;5093297;28;20204;-61
2022/09/05 00:17:04;;;;;;;10.40;5.03;;;16.10;84.30;;;;;;5079462;28;20204;-61
2022/09/05 00:19:45;;;;;;;7.30;4.90;;;16.00;84.30;;;;;;5094163;28;20213;-61
2022/09/05 00:22:29;;;;;;;4.60;4.30;;;16.00;84.30;;;;;;5095231;28;20184;-61
2022/09/05 00:25:13;;;;;;;7.37;4.90;;;15.90;84.40;;;;;;5099696;28;20194;-61
2022/09/05 00:27:57;;;;;;;7.50;4.50;;;16.00;84.60;;;;;;5112081;28;20336;-61
2022/09/05 00:30:23;;;;;;;6.10;4.70;;;15.90;84.50;;;;;;5105235;27;20257;-61
2022/09/05 00:33:10;;;;;;;5.97;4.43;;;15.90;84.50;;;;;;5095279;28;20243;-61
2022/09/05 00:35:46;;;;;;;5.87;3.97;;;15.80;84.50;;;;;;5113988;28;20180;-61
2022/09/05 00:38:16;;;;;;;4.50;4.10;;;15.90;84.40;;;;;;5092345;28;20214;-61
2022/09/05 00:40:48;;;;;;;8.83;4.60;;;15.80;84.40;;;;;;5099976;28;20177;-61
2022/09/05 00:43:42;;;;;;;9.03;4.97;;;15.80;84.50;;;;;;5093082;28;20195;-61
2022/09/05 00:46:15;;;;;;;7.73;3.93;;;15.80;84.50;;;;;;5080508;28;20184;-61
2022/09/05 00:49:07;;;;;;;4.90;4.50;;;15.80;84.60;;;;;;5104489;28;20271;-61
2022/09/05 00:52:00;;;;;;;4.70;4.30;;;15.70;84.80;;;;;;5059396;28;20188;-61
2022/09/05 00:54:44;;;;;;;7.13;4.10;;;15.80;84.90;;;;;;5082202;28;20196;-61
2022/09/05 00:57:34;;;;;;;5.77;4.30;;;15.80;84.80;;;;;;5101869;28;20192;-61
2022/09/05 01:00:09;;;;;;;8.13;5.13;;;15.70;84.70;;;;;;5088960;28;20204;-61
2022/09/05 01:02:53;;;;;;;8.70;4.33;;;15.80;84.70;;;;;;5091537;28;20275;-61
2022/09/05 01:05:55;;;;;;;5.87;4.13;;;15.70;84.70;;;;;;5110039;27;20184;-61
2022/09/05 01:08:36;;;;;;;6.00;3.93;;;15.70;84.60;;;;;;5093909;28;20219;-61
2022/09/05 01:11:34;;;;;;;5.93;3.80;;;15.70;84.60;;;;;;5084302;28;20188;-61
2022/09/05 01:14:32;;;;;;;10.43;4.97;;;15.70;84.60;;;;;;5092275;28;20192;-61
2022/09/05 01:17:07;;;;;;;4.67;4.27;;;15.60;84.60;;;;;;5092916;28;20215;-61
2022/09/05 01:20:15;;;;;;;8.97;4.50;;;15.60;84.70;;;;;;5092988;28;20204;-61
2022/09/05 01:23:16;;;;;;;4.77;4.37;;;15.60;84.80;;;;;;5096465;28;20310;-61
2022/09/05 01:26:12;;;;;;;7.13;4.80;;;15.60;84.90;;;;;;5095577;28;20194;-61
2022/09/05 01:28:43;;;;;;;4.50;3.83;;;15.60;84.90;;;;;;5093795;28;20256;-61
2022/09/05 01:31:32;;;;;;;5.27;4.53;;;15.60;85.00;;;;;;5083707;28;20241;-61
2022/09/05 01:34:07;;;;;;;4.90;4.40;;;15.60;85.00;;;;;;5089516;28;20185;-61
2022/09/05 01:36:57;;;;;;;6.33;4.30;;;15.60;85.00;;;;;;5090945;28;20216;-61
2022/09/05 01:39:57;;;;;;;4.83;4.30;;;15.50;85.00;;;;;;5103271;28;20257;-61
2022/09/05 01:43:01;;;;;;;6.93;4.60;;;15.50;85.00;;;;;;5080501;28;20184;-61
2022/09/05 01:45:45;;;;;;;4.60;4.20;;;15.50;85.10;;;;;;5041170;28;20188;-61
2022/09/05 01:48:49;;;;;;;4.73;4.27;;;15.50;85.00;;;;;;5091903;28;20231;-61
2022/09/05 01:52:04;;;;;;;7.70;4.30;;;15.40;85.00;;;;;;5105956;28;20193;-61
2022/09/05 01:55:12;;;;;;;5.43;4.27;;;15.50;85.20;;;;;;5088594;28;20196;-61
2022/09/05 01:58:04;;;;;;;4.63;4.03;;;15.40;85.10;;;;;;5093336;28;20185;-61
2022/09/05 02:00:42;;;;;;;9.03;4.33;;;15.40;85.20;;;;;;5096517;28;20182;-61
2022/09/05 02:03:41;;;;;;;4.90;3.87;;;15.40;85.20;;;;;;5089551;28;20229;-61
2022/09/05 02:06:38;;;;;;;7.57;4.33;;;15.40;85.20;;;;;;5112881;28;20191;-61
2022/09/05 02:09:41;;;;;;;5.40;4.20;;;15.40;85.10;;;;;;5111845;28;20187;-61
2022/09/05 02:12:31;;;;;;;4.90;4.10;;;15.40;85.30;;;;;;5091466;28;20236;-61
2022/09/05 02:15:20;;;;;;;15.07;5.27;;;15.40;85.20;;;;;;5092653;28;20188;-61
2022/09/05 02:17:51;;;;;;;6.57;4.30;;;15.40;85.20;;;;;;5111743;28;20187;-61
2022/09/05 02:20:28;;;;;;;9.00;4.10;;;15.40;85.00;;;;;;5093911;28;20188;-61
2022/09/05 02:23:26;;;;;;;6.00;4.03;;;15.30;85.00;;;;;;5091127;28;20188;-61
2022/09/05 02:26:04;;;;;;;4.37;4.00;;;15.30;85.10;;;;;;5107523;28;20196;-61
2022/09/05 02:28:45;;;;;;;6.10;4.67;;;15.30;85.00;;;;;;5101806;28;20287;-61
2022/09/05 02:31:22;;;;;;;7.13;4.20;;;15.30;85.00;;;;;;5110321;28;20188;-61
2022/09/05 02:34:20;;;;;;;6.03;3.93;;;15.20;85.20;;;;;;5096705;28;20193;-61
2022/09/05 02:37:24;;;;;;;6.60;3.97;;;15.30;85.20;;;;;;5033854;28;20265;-61
2022/09/05 02:39:59;;;;;;;7.10;4.23;;;15.30;85.30;;;;;;5112629;27;20218;-61
2022/09/05 02:42:50;;;;;;;6.00;4.13;;;15.20;85.40;;;;;;5095865;28;20183;-61
2022/09/05 02:45:33;;;;;;;7.23;4.20;;;15.30;85.40;;;;;;5096288;28;20186;-61
2022/09/05 02:48:14;;;;;;;6.00;3.77;;;15.30;85.30;;;;;;5092708;28;20282;-61
2022/09/05 02:50:40;;;;;;;4.43;4.00;;;15.30;85.40;;;;;;5078436;28;20185;-61
2022/09/05 02:53:09;;;;;;;6.50;4.60;;;15.30;85.40;;;;;;5095468;28;20218;-61
2022/09/05 02:56:00;;;;;;;6.83;4.30;;;15.30;85.70;;;;;;5079002;28;20207;-61
2022/09/05 02:58:29;;;;;;;5.27;3.93;;;15.30;85.30;;;;;;5094817;28;20283;-61
2022/09/05 03:01:16;;;;;;;8.07;4.70;;;15.30;85.20;;;;;;5096218;28;20212;-61
2022/09/05 03:04:12;;;;;;;4.90;3.80;;;15.30;85.00;;;;;;5091372;28;20568;-61
2022/09/05 03:06:51;;;;;;;4.77;4.37;;;15.20;85.00;;;;;;5091643;28;20208;-61
2022/09/05 03:09:24;;;;;;;5.63;4.20;;;15.20;85.10;;;;;;5085980;27;20196;-61
2022/09/05 03:11:56;;;;;;;8.43;4.47;;;15.20;85.20;;;;;;5081746;28;20327;-61
2022/09/05 03:14:39;;;;;;;5.67;4.10;;;15.10;85.30;;;;;;5097302;28;20192;-61
2022/09/05 03:17:08;;;;;;;6.63;4.20;;;15.10;85.30;;;;;;5105153;27;20241;-61
2022/09/05 03:19:53;;;;;;;6.10;4.20;;;15.00;85.30;;;;;;5100554;28;20310;-61
2022/09/05 03:22:40;;;;;;;6.23;4.10;;;15.10;85.30;;;;;;5095401;27;20199;-61
2022/09/05 03:25:44;;;;;;;4.20;3.77;;;15.00;85.30;;;;;;5110051;27;20188;-61
2022/09/05 03:28:48;;;;;;;7.10;3.83;;;15.00;85.50;;;;;;5080939;27;20223;-61
2022/09/05 03:31:33;;;;;;;5.63;4.37;;;15.00;85.50;;;;;;5098897;28;20207;-61
2022/09/05 03:34:36;;;;;;;5.03;4.00;;;15.00;85.50;;;;;;5096832;28;20309;-61
2022/09/05 03:37:42;;;;;;;4.27;3.97;;;15.00;85.40;;;;;;5095521;28;20187;-61
2022/09/05 03:40:35;;;;;;;4.53;4.13;;;15.00;85.40;;;;;;5090249;28;20192;-61
2022/09/05 03:43:30;;;;;;;6.73;4.70;;;15.00;85.50;;;;;;5103539;28;20185;-61
2022/09/05 03:46:21;;;;;;;4.60;3.47;;;15.00;85.40;;;;;;5106749;28;20192;-61
2022/09/05 03:49:05;;;;;;;4.97;3.90;;;14.90;85.50;;;;;;5089212;28;20207;-61
2022/09/05 03:51:39;;;;;;;5.40;4.40;;;14.90;85.50;;;;;;5093928;28;20210;-61
2022/09/05 03:54:35;;;;;;;5.97;4.20;;;14.80;85.50;;;;;;5111344;27;20204;-61
2022/09/05 03:57:43;;;;;;;6.40;4.20;;;14.90;85.50;;;;;;5088218;28;20196;-61
2022/09/05 04:00:20;;;;;;;5.93;4.13;;;14.90;85.40;;;;;;5110480;28;20219;-61
2022/09/05 04:03:01;;;;;;;5.33;4.83;;;14.80;85.40;;;;;;5088138;28;20211;-61
2022/09/05 04:05:31;;;;;;;4.87;4.47;;;14.80;85.40;;;;;;5101154;28;20208;-61
2022/09/05 04:08:14;;;;;;;4.83;4.43;;;14.80;85.50;;;;;;5112523;28;20173;-61
2022/09/05 04:10:58;;;;;;;5.67;4.53;;;14.80;85.70;;;;;;5095335;28;20222;-61
2022/09/05 04:13:45;;;;;;;5.23;3.87;;;14.80;85.60;;;;;;5102766;27;20182;-61
2022/09/05 04:16:23;;;;;;;5.17;4.67;;;14.80;85.60;;;;;;5107839;27;20172;-61
2022/09/05 04:19:12;;;;;;;6.10;4.37;;;14.80;85.50;;;;;;5112141;28;20302;-61
2022/09/05 04:21:46;;;;;;;5.27;4.10;;;14.80;85.50;;;;;;5111523;28;20215;-61
2022/09/05 04:24:29;;;;;;;5.90;5.00;;;14.70;85.50;;;;;;5093470;28;20231;-61
2022/09/05 04:27:24;;;;;;;6.93;5.03;;;14.80;85.70;;;;;;5084359;28;20242;-61
2022/09/05 04:30:00;;;;;;;4.70;4.30;;;14.80;85.60;;;;;;5094613;28;20196;-61
2022/09/05 04:32:29;;;;;;;4.93;4.50;;;14.70;85.50;;;;;;5091268;28;20197;-61
2022/09/05 04:35:19;;;;;;;7.27;4.53;;;14.70;85.50;;;;;;5113140;28;20185;-61
2022/09/05 04:37:45;;;;;;;5.33;4.13;;;14.70;85.50;;;;;;5095992;28;20185;-61
2022/09/05 04:40:32;;;;;;;6.03;5.07;;;14.70;85.60;;;;;;5101038;28;20210;-61
2022/09/05 04:43:04;;;;;;;4.77;4.00;;;14.70;85.70;;;;;;5113270;28;20173;-61
2022/09/05 04:45:36;;;;;;;7.13;5.13;;;14.70;85.80;;;;;;5090343;28;20239;-61
2022/09/05 04:48:05;;;;;;;6.20;4.53;;;14.70;85.70;;;;;;5096870;28;20207;-61
2022/09/05 04:50:34;;;;;;;4.80;4.30;;;14.70;85.60;;;;;;5111385;28;20173;-61
2022/09/05 04:53:03;;;;;;;5.53;4.87;;;14.70;85.80;;;;;;5092708;28;20176;-61
2022/09/05 04:55:31;;;;;;;5.63;4.97;;;14.70;85.80;;;;;;5094852;28;20182;-61
2022/09/05 04:58:06;;;;;;;4.87;4.17;;;14.70;85.80;;;;;;5112789;28;20272;-61
2022/09/05 05:01:11;;;;;;;4.60;3.80;;;14.70;85.90;;;;;;5089453;28;20176;-61
2022/09/05 05:03:37;;;;;;;4.53;4.13;;;14.70;86.00;;;;;;4995626;28;20222;-61
2022/09/05 05:06:10;;;;;;;4.90;4.50;;;14.80;86.20;;;;;;5063244;28;20203;-61
2022/09/05 05:08:51;;;;;;;5.83;4.43;;;14.80;86.30;;;;;;5113436;28;20639;-61
2022/09/05 05:11:47;;;;;;;5.23;4.40;;;14.80;86.40;;;;;;5111071;28;20181;-61
2022/09/05 05:14:23;;;;;;;5.00;3.73;;;14.80;86.40;;;;;;5098539;28;20183;-61
2022/09/05 05:16:59;;;;;;;4.57;4.17;;;14.80;86.40;;;;;;5097109;28;20185;-61
2022/09/05 05:19:29;;;;;;;4.90;4.50;;;14.80;86.40;;;;;;5091867;28;20211;-61
2022/09/05 05:21:58;;;;;;;5.20;4.73;;;14.90;86.60;;;;;;5114380;28;20249;-61
2022/09/05 05:24:35;;;;;;;5.73;4.50;;;14.90;86.30;;;;;;5095936;28;20191;-61
2022/09/05 05:27:15;;;;;;;6.33;4.43;;;15.00;86.30;;;;;;5094704;28;20185;-61
2022/09/05 05:30:01;;;;;;;5.20;4.70;;;15.00;86.40;;;;;;5098061;28;20188;-61
2022/09/05 05:32:45;;;;;;;6.20;5.07;;;15.00;86.50;;;;;;5112106;28;20209;-61
2022/09/05 05:35:17;;;;;;;6.37;5.17;;;15.00;86.50;;;;;;5111938;28;20196;-61
2022/09/05 05:38:22;;;;;;;5.27;4.73;;;15.10;86.70;;;;;;5105451;28;20199;-61
2022/09/05 05:41:20;;;;;;;7.70;5.80;;;15.10;86.70;;;;;;5097347;28;20306;-60
2022/09/05 05:43:47;;;;;;;5.10;4.60;;;15.20;86.70;;;;;;5091831;28;20201;-61
2022/09/05 05:46:23;;;;;;;8.50;5.07;;;15.20;86.60;;;;;;5080132;28;20192;-61
2022/09/05 05:48:52;;;;;;;5.53;4.47;;;15.20;86.80;;;;;;5106042;28;20184;-60
2022/09/05 05:51:43;;;;;;;5.90;5.20;;;15.20;86.90;;;;;;5093404;28;20184;-61
2022/09/05 05:54:36;;;;;;;5.83;5.33;;;15.30;86.90;;;;;;5092214;28;20199;-61
2022/09/05 05:57:35;;;;;;;6.20;5.47;;;15.30;86.90;;;;;;5115834;28;20180;-61
2022/09/05 06:00:18;;;;;;;5.43;4.77;;;15.30;86.90;;;;;;5098598;28;20207;-61
2022/09/05 06:03:17;;;;;;;6.20;5.60;;;15.30;86.80;;;;;;5095140;28;20180;-60
2022/09/05 06:06:26;;;;;;;6.53;5.63;;;15.40;86.80;;;;;;5108946;28;20218;-61
2022/09/05 06:09:22;;;;;;;5.90;5.17;;;15.40;86.80;;;;;;5095658;28;20284;-60
2022/09/05 06:12:44;;;;;;;5.90;5.10;;;15.40;86.70;;;;;;5087675;27;20199;-60
2022/09/05 06:15:25;;;;;;;5.53;5.03;;;15.50;86.80;;;;;;4999772;28;20206;-60
2022/09/05 06:18:09;;;;;;;6.90;5.40;;;15.50;86.80;;;;;;5014542;28;20187;-60
2022/09/05 06:21:03;;;;;;;6.37;5.80;;;15.50;86.80;;;;;;5102807;28;20269;-60
2022/09/05 06:24:08;;;;;;;6.40;5.60;;;15.60;86.90;;;;;;5099913;27;20192;-60
2022/09/05 06:27:07;;;;;;;6.90;5.77;;;15.60;87.00;;;;;;5112531;28;20192;-60
2022/09/05 06:29:49;;;;;;;6.03;5.43;;;15.60;86.90;;;;;;5090680;28;20193;-60
2022/09/05 06:32:39;;;;;;;6.97;5.53;;;15.60;87.10;;;;;;5078300;28;20250;-60
2022/09/05 06:35:55;;;;;;;5.97;5.37;;;15.70;87.00;;;;;;5078204;28;20197;-60
2022/09/05 06:38:53;;;;;;;6.20;5.67;;;15.70;86.90;;;;;;5024747;28;20248;-60
2022/09/05 06:41:32;;;;;;;5.83;5.30;;;15.80;87.00;;;;;;5035674;28;20202;-60
2022/09/05 06:44:30;;;;;;;9.30;5.37;;;15.90;86.90;;;;;;5067051;28;20202;-60
2022/09/05 06:46:59;;;;;;;6.57;5.43;;;15.90;86.90;;;;;;5071956;28;20231;-60
2022/09/05 06:49:40;;;;;;;5.77;5.23;;;15.90;86.80;;;;;;5071024;28;20193;-60
2022/09/05 06:52:05;;;;;;;7.40;5.87;;;16.00;86.80;;;;;;5078356;28;20220;-60
2022/09/05 06:54:54;;;;;;;5.90;5.33;;;16.00;86.70;;;;;;5073625;28;20216;-60
2022/09/05 06:57:46;;;;;;;6.03;5.20;;;16.00;86.80;;;;;;5068983;28;20201;-59
2022/09/05 07:00:52;;;;;;;13.47;5.50;;;16.10;86.70;;;;;;5066758;28;20209;-61
2022/09/05 07:03:18;;;;;;;6.30;5.57;;;16.20;86.80;;;;;;4978188;28;20191;-60
2022/09/05 07:05:53;;;;;;;6.87;5.60;;;16.20;86.70;;;;;;5044181;28;20281;-60
2022/09/05 07:08:46;;;;;;;7.07;6.37;;;16.20;86.70;;;;;;5071173;28;20197;-60
2022/09/05 07:11:19;;;;;;;6.57;5.30;;;16.30;86.70;;;;;;5072411;28;20181;-60
2022/09/05 07:13:54;;;;;;;7.20;5.57;;;16.30;86.70;;;;;;5082396;28;20232;-60
2022/09/05 07:16:40;;;;;;;6.53;5.60;;;16.40;86.60;;;;;;5077600;28;20220;-60
2022/09/05 07:19:13;;;;;;;6.43;5.83;;;16.50;86.70;;;;;;5071022;28;20217;-60
2022/09/05 07:21:54;;;;;;;6.23;5.67;;;16.50;86.70;;;;;;5069712;28;20179;-60
2022/09/05 07:24:24;;;;;;;7.10;5.70;;;16.50;86.70;;;;;;5078320;28;20272;-60
2022/09/05 07:26:52;;;;;;;7.10;6.00;;;16.60;86.60;;;;;;5075779;28;20296;-60
2022/09/05 07:29:31;;;;;;;7.00;6.23;;;16.60;86.60;;;;;;5083376;28;20237;-60
2022/09/05 07:31:59;;;;;;;6.93;6.20;;;16.60;86.60;;;;;;5076392;28;20196;-60
2022/09/05 07:34:33;;;;;;;6.23;5.73;;;16.70;86.40;;;;;;5082562;28;20288;-61
2022/09/05 07:37:14;;;;;;;6.37;5.80;;;16.80;86.40;;;;;;5084300;28;20314;-61
2022/09/05 07:40:09;;;;;;;6.23;5.43;;;16.80;86.60;;;;;;5066420;28;20639;-61
2022/09/05 07:42:56;;;;;;;7.13;6.43;;;16.80;86.40;;;;;;5067655;28;20217;-61
2022/09/05 07:45:28;;;;;;;7.63;6.90;;;16.90;86.50;;;;;;5094816;28;20195;-61
2022/09/05 07:48:26;;;;;;;5.80;5.30;;;17.00;86.40;;;;;;5075098;28;20185;-61
2022/09/05 07:50:59;;;;;;;6.83;6.23;;;17.00;86.20;;;;;;5074064;28;20193;-61
2022/09/05 07:53:26;;;;;;;6.67;5.90;;;17.10;86.30;;;;;;5094543;28;20197;-61
2022/09/05 07:55:57;;;;;;;5.77;5.27;;;17.20;86.10;;;;;;5076697;28;20189;-61
2022/09/05 07:58:52;;;;;;;6.07;5.57;;;17.30;86.00;;;;;;5076619;28;20216;-60
2022/09/05 08:01:21;;;;;;;6.80;5.93;;;17.30;86.10;;;;;;5042006;28;20200;-61
2022/09/05 08:03:54;;;;;;;6.37;5.77;;;17.40;86.10;;;;;;5051302;28;20192;-61
2022/09/05 08:06:23;;;;;;;6.30;5.43;;;17.50;85.80;;;;;;5060676;28;20190;-61
2022/09/05 08:09:06;;;;;;;5.83;5.37;;;17.50;85.90;;;;;;5092680;28;20185;-61
2022/09/05 08:11:34;;;;;;;6.63;5.97;;;17.60;85.80;;;;;;5076826;28;20189;-61
2022/09/05 08:14:16;;;;;;;6.53;5.83;;;17.70;85.80;;;;;;5079554;28;20189;-61
2022/09/05 08:16:42;;;;;;;6.77;5.70;;;17.90;84.90;;;;;;5084551;28;20197;-60
2022/09/05 08:19:33;;;;;;;6.83;6.17;;;18.00;84.60;;;;;;5050901;28;20205;-61
2022/09/05 08:22:01;;;;;;;6.60;6.00;;;18.10;84.90;;;;;;5075804;28;20192;-61
2022/09/05 08:24:42;;;;;;;7.40;6.70;;;18.20;84.40;;;;;;5076146;28;20185;-61
2022/09/05 08:27:22;;;;;;;7.17;6.50;;;18.30;84.70;;;;;;5086967;28;20191;-61
2022/09/05 08:30:20;;;;;;;6.50;5.90;;;18.40;84.60;;;;;;5079383;28;20284;-60
2022/09/05 08:32:51;;;;;;;8.03;7.23;;;18.50;84.50;;;;;;5055908;28;20197;-61
2022/09/05 08:35:27;;;;;;;7.93;7.13;;;18.60;84.90;;;;;;5098426;28;20195;-61
2022/09/05 08:37:53;;;;;;;6.83;6.23;;;18.60;84.50;;;;;;5072071;28;20193;-61
2022/09/05 08:40:44;;;;;;;7.17;6.57;;;18.70;84.10;;;;;;5080431;28;20213;-61
2022/09/05 08:43:24;;;;;;;7.57;6.97;;;18.80;84.20;;;;;;5078310;28;20192;-61
2022/09/05 08:46:07;;;;;;;7.07;5.83;;;19.00;82.60;;;;;;5067240;28;20220;-61
2022/09/05 08:48:51;;;;;;;6.93;6.30;;;19.20;81.80;;;;;;5075496;28;20180;-61
2022/09/05 08:51:51;;;;;;;7.20;6.30;;;19.30;81.40;;;;;;5100665;28;20200;-61
2022/09/05 08:55:00;;;;;;;6.60;6.00;;;19.40;81.00;;;;;;5069504;28;20197;-61
2022/09/05 08:57:45;;;;;;;7.23;6.63;;;19.60;81.90;;;;;;5051775;28;20205;-61
2022/09/05 09:00:15;;;;;;;6.13;5.57;;;19.70;81.20;;;;;;5078787;28;20288;-61
2022/09/05 09:03:01;;;;;;;7.20;5.93;;;19.70;81.30;;;;;;5093480;28;20188;-61
2022/09/05 09:05:47;;;;;;;5.77;5.27;;;19.70;79.70;;;;;;5026782;28;20205;-61
2022/09/05 09:08:35;;;;;;;5.83;5.33;;;19.80;78.10;;;;;;5082846;28;20184;-61
2022/09/05 09:11:29;;;;;;;6.07;5.57;;;19.90;79.30;;;;;;5071499;28;20219;-61
2022/09/05 09:14:53;;;;;;;5.90;5.40;;;20.10;78.40;;;;;;5089988;28;20224;-61
2022/09/05 09:17:38;;;;;;;7.30;6.70;;;20.30;79.00;;;;;;5022594;28;20337;-61
2022/09/05 09:20:28;;;;;;;6.33;5.70;;;20.30;78.70;;;;;;5030296;28;20257;-61
2022/09/05 09:22:57;;;;;;;6.23;5.73;;;20.30;78.30;;;;;;5068377;28;20201;-61
2022/09/05 09:25:28;;;;;;;6.53;5.93;;;20.40;78.60;;;;;;5074641;28;20181;-61
2022/09/05 09:28:29;;;;;;;7.10;6.20;;;20.30;78.70;;;;;;5094697;28;20224;-61
2022/09/05 09:31:00;;;;;;;7.10;5.70;;;20.40;79.00;;;;;;5084977;28;20298;-61
2022/09/05 09:33:39;;;;;;;6.47;5.80;;;20.30;79.30;;;;;;5094124;28;20196;-61
2022/09/05 09:36:30;;;;;;;6.20;5.70;;;20.40;78.10;;;;;;5103640;28;20188;-60
2022/09/05 09:39:17;;;;;;;6.67;6.10;;;20.40;78.20;;;;;;5099847;28;20295;-61
2022/09/05 09:41:44;;;;;;;6.33;5.83;;;20.40;78.20;;;;;;5097348;28;20180;-61
2022/09/05 09:44:47;;;;;;;6.70;6.10;;;20.50;78.90;;;;;;5090646;28;20218;-61
2022/09/05 09:47:17;;;;;;;6.00;5.40;;;20.70;77.00;;;;;;5096044;28;20192;-61
2022/09/05 09:50:06;;;;;;;5.60;5.10;;;20.90;77.80;;;;;;5113515;28;20188;-60
2022/09/05 09:53:02;;;;;;;5.73;5.20;;;21.10;76.20;;;;;;5101488;28;20181;-61
2022/09/05 09:56:02;;;;;;;6.03;5.53;;;21.20;74.00;;;;;;5097569;28;20184;-61
2022/09/05 09:58:35;;;;;;;6.07;5.47;;;21.20;74.80;;;;;;5094245;28;20208;-61
2022/09/05 10:01:07;;;;;;;6.03;5.60;;;21.10;75.30;;;;;;5115807;28;20184;-61
2022/09/05 10:03:41;;;;;;;6.30;5.70;;;21.10;75.60;;;;;;5090645;28;20188;-61
2022/09/05 10:06:42;;;;;;;6.03;5.53;;;21.10;76.50;;;;;;5085570;28;20211;-61
2022/09/05 10:09:44;;;;;;;6.43;5.87;;;21.20;76.90;;;;;;5106088;28;20273;-61
2022/09/05 10:12:41;;;;;;;6.37;5.77;;;21.30;76.50;;;;;;5099170;28;20226;-61
2022/09/05 10:15:25;;;;;;;6.70;6.00;;;21.40;75.80;;;;;;5095197;28;20189;-61
2022/09/05 10:18:06;;;;;;;6.47;5.97;;;21.40;76.00;;;;;;5101757;28;20199;-61
2022/09/05 10:20:34;;;;;;;6.27;5.77;;;21.40;75.20;;;;;;5094863;28;20200;-61
2022/09/05 10:23:38;;;;;;;6.50;6.03;;;21.40;76.00;;;;;;5108077;28;20200;-61
2022/09/05 10:26:23;;;;;;;6.90;5.77;;;21.40;76.40;;;;;;5115510;28;20188;-61
2022/09/05 10:29:02;;;;;;;6.20;5.60;;;21.50;76.00;;;;;;5096943;28;20229;-61
2022/09/05 10:31:56;;;;;;;6.63;6.03;;;21.60;76.10;;;;;;5070935;28;20192;-61
2022/09/05 10:34:29;;;;;;;6.00;5.40;;;21.70;76.60;;;;;;5075816;28;20239;-61
2022/09/05 10:37:16;;;;;;;6.17;5.33;;;21.80;75.60;;;;;;5071165;28;20212;-60
2022/09/05 10:39:47;;;;;;;5.97;5.50;;;21.80;75.50;;;;;;5065437;28;20271;-60
2022/09/05 10:42:43;;;;;;;5.97;5.47;;;21.90;75.80;;;;;;5073714;28;20207;-60
2022/09/05 10:45:28;;;;;;;5.30;4.90;;;22.00;73.00;;;;;;5002713;28;20196;-61
2022/09/05 10:48:16;;;;;;;4.80;4.43;;;22.10;72.60;;;;;;5074952;28;20275;-61
2022/09/05 10:51:00;;;;;;;6.03;5.47;;;22.40;71.00;;;;;;5076210;28;20196;-61
2022/09/05 10:53:37;;;;;;;5.13;4.63;;;22.50;71.90;;;;;;5056876;28;20211;-61
2022/09/05 10:56:06;;;;;;;5.93;5.43;;;22.40;71.70;;;;;;5089074;28;20193;-60
2022/09/05 10:59:00;;;;;;;6.00;5.50;;;22.40;71.80;;;;;;5077599;28;20215;-61
2022/09/05 11:02:05;;;;;;;6.20;5.70;;;22.40;72.20;;;;;;5076400;28;20208;-61
2022/09/05 11:04:49;;;;;;;5.50;5.00;;;22.30;72.60;;;;;;5048503;28;20254;-61
2022/09/05 11:07:18;;;;;;;5.93;5.43;;;22.30;70.50;;;;;;5077461;28;20196;-61
2022/09/05 11:09:50;;;;;;;5.53;5.03;;;22.20;71.40;;;;;;5070156;28;20193;-61
2022/09/05 11:12:36;;;;;;;5.87;5.47;;;22.30;71.90;;;;;;5070624;28;20185;-61
2022/09/05 11:15:33;;;;;;;5.37;4.87;;;22.30;71.30;;;;;;5057926;28;20186;-61
2022/09/05 11:18:13;;;;;;;7.03;5.30;;;22.30;72.60;;;;;;5065733;28;20192;-60
2022/09/05 11:21:02;;;;;;;5.53;5.03;;;22.40;72.60;;;;;;5076676;28;20279;-61
2022/09/05 11:23:50;;;;;;;5.87;5.17;;;22.40;71.80;;;;;;5075596;28;20173;-61
2022/09/05 11:26:43;;;;;;;5.60;5.10;;;22.30;70.80;;;;;;5066153;28;20181;-61
2022/09/05 11:29:16;;;;;;;6.00;5.50;;;22.30;71.30;;;;;;5088537;27;20268;-61
2022/09/05 11:31:58;;;;;;;5.60;5.20;;;22.30;72.30;;;;;;5110012;28;20184;-61
2022/09/05 11:34:45;;;;;;;5.23;4.70;;;22.40;71.30;;;;;;5113805;28;20184;-60
2022/09/05 11:37:26;;;;;;;6.07;5.57;;;22.50;71.40;;;;;;5096528;28;20185;-61
2022/09/05 11:40:13;;;;;;;5.70;5.30;;;22.70;72.10;;;;;;5113936;28;20216;-61
2022/09/05 11:42:39;;;;;;;7.20;5.30;;;22.80;72.20;;;;;;5103473;28;20292;-61
2022/09/05 11:45:14;;;;;;;5.83;5.43;;;22.90;71.30;;;;;;5095818;28;20267;-61
2022/09/05 11:48:20;;;;;;;5.90;5.50;;;23.00;72.20;;;;;;5100252;28;20215;-61
2022/09/05 11:51:16;;;;;;;5.47;4.97;;;23.10;72.30;;;;;;5091595;28;20192;-61
2022/09/05 11:54:05;;;;;;;5.50;5.10;;;23.20;71.90;;;;;;5103546;28;20191;-61
2022/09/05 11:56:59;;;;;;;5.23;4.83;;;23.20;71.30;;;;;;5114649;28;20188;-61
2022/09/05 12:00:05;;;;;;;5.53;5.13;;;23.20;71.60;;;;;;5093145;28;20200;-61
2022/09/05 12:03:13;;;;;;;5.50;5.10;;;23.30;71.60;;;;;;5069150;28;20291;-61
2022/09/05 12:06:19;;;;;;;5.37;4.97;;;23.40;68.10;;;;;;5096187;28;20212;-61
2022/09/05 12:09:06;;;;;;;6.33;5.80;;;23.40;68.30;;;;;;5094068;28;20216;-61
2022/09/05 12:11:57;;;;;;;6.10;5.33;;;23.60;69.70;;;;;;5085055;28;20183;-61
2022/09/05 12:15:00;;;;;;;5.40;5.00;;;23.80;69.20;;;;;;5093792;28;20188;-61
2022/09/05 12:17:47;;;;;;;5.07;4.67;;;24.20;69.10;;;;;;5062383;28;20237;-61
2022/09/05 12:20:17;;;;;;;5.10;4.70;;;24.20;66.30;;;;;;5095361;28;20212;-61
2022/09/05 12:23:01;;;;;;;6.10;5.60;;;24.10;66.30;;;;;;5101083;28;20184;-61
2022/09/05 12:25:32;;;;;;;6.60;5.93;;;23.90;64.10;;;;;;5096576;28;20177;-61
2022/09/05 12:28:06;;;;;;;5.80;5.40;;;23.70;66.30;;;;;;5095703;28;20239;-61
2022/09/05 12:30:41;;;;;;;6.67;5.40;;;23.70;66.40;;;;;;5089897;28;20184;-61
2022/09/05 12:33:23;;;;;;;6.13;5.63;;;23.70;67.90;;;;;;5096390;28;20195;-61
2022/09/05 12:36:09;;;;;;;6.00;5.40;;;23.60;68.70;;;;;;5091949;28;20227;-61
2022/09/05 12:39:01;;;;;;;5.60;5.10;;;23.50;69.00;;;;;;5100569;28;20208;-61
2022/09/05 12:41:49;;;;;;;5.70;5.20;;;23.50;68.70;;;;;;5087549;28;20216;-61
2022/09/05 12:44:31;;;;;;;6.17;5.67;;;23.50;68.90;;;;;;5094792;28;20183;-61
2022/09/05 12:47:05;;;;;;;5.77;5.33;;;23.30;68.10;;;;;;5095594;28;20314;-60
2022/09/05 12:49:48;;;;;;;6.33;5.80;;;23.30;69.30;;;;;;5090736;28;20191;-61
2022/09/05 12:52:16;;;;;;;5.80;5.20;;;23.30;69.40;;;;;;5091128;28;20203;-61
2022/09/05 12:54:50;;;;;;;6.30;5.73;;;23.30;70.20;;;;;;5095102;28;20243;-61
2022/09/05 12:57:26;;;;;;;6.13;5.53;;;23.30;70.70;;;;;;5094186;28;20209;-61
2022/09/05 12:59:55;;;;;;;6.43;5.53;;;23.20;69.80;;;;;;5093779;28;20215;-61
2022/09/05 13:02:26;;;;;;;6.43;5.70;;;23.20;70.70;;;;;;5074860;28;20228;-61
2022/09/05 13:05:00;;;;;;;6.27;5.77;;;23.10;70.90;;;;;;5087652;28;20196;-61
2022/09/05 13:07:41;;;;;;;7.33;6.60;;;23.10;70.40;;;;;;5094154;28;20185;-61
2022/09/05 13:10:39;;;;;;;6.53;5.93;;;23.00;71.60;;;;;;5097197;28;20187;-61
2022/09/05 13:13:12;;;;;;;6.40;5.83;;;22.90;71.80;;;;;;5082577;28;20189;-61
2022/09/05 13:15:46;;;;;;;6.30;5.80;;;22.90;71.40;;;;;;5094294;28;20192;-61
2022/09/05 13:18:19;;;;;;;7.00;6.33;;;22.90;71.00;;;;;;5092833;28;20228;-61
2022/09/05 13:20:54;;;;;;;7.80;7.13;;;22.90;71.90;;;;;;5092344;28;20234;-61
2022/09/05 13:23:52;;;;;;;6.60;6.00;;;22.90;71.20;;;;;;5100307;28;20192;-61
2022/09/05 13:26:32;;;;;;;6.70;6.10;;;22.90;70.00;;;;;;5080674;28;20192;-61
2022/09/05 13:29:11;;;;;;;5.40;5.00;;;22.90;70.00;;;;;;5066826;28;20240;-61
2022/09/05 13:31:40;;;;;;;6.47;5.97;;;22.90;69.00;;;;;;5070075;28;20189;-61
2022/09/05 13:34:21;;;;;;;6.23;5.73;;;22.90;71.10;;;;;;5092934;28;20212;-61
2022/09/05 13:37:13;;;;;;;6.83;5.50;;;23.10;71.40;;;;;;5074004;28;20211;-61
2022/09/05 13:39:50;;;;;;;6.50;6.00;;;23.20;70.00;;;;;;5069216;28;20254;-61
2022/09/05 13:42:20;;;;;;;7.33;6.40;;;23.40;70.40;;;;;;5092382;28;20189;-61
2022/09/05 13:44:50;;;;;;;6.73;6.07;;;23.60;69.70;;;;;;5092071;28;20200;-61
2022/09/05 13:47:40;;;;;;;6.37;5.77;;;23.80;70.20;;;;;;5071037;28;20192;-61
2022/09/05 13:50:29;;;;;;;6.40;5.67;;;24.00;70.00;;;;;;5073779;28;20192;-61
2022/09/05 13:53:03;;;;;;;7.13;6.53;;;24.00;68.80;;;;;;5073131;28;20188;-61
2022/09/05 13:55:52;;;;;;;6.00;5.50;;;24.20;68.10;;;;;;5073016;28;20234;-61
2022/09/05 13:58:30;;;;;;;6.07;5.33;;;24.60;67.40;;;;;;5057648;28;20224;-61
2022/09/05 14:01:13;;;;;;;6.13;5.20;;;24.80;64.50;;;;;;5074423;28;20192;-61
2022/09/05 14:04:04;;;;;;;7.90;5.10;;;24.80;61.50;;;;;;5073362;28;20181;-61
2022/09/05 14:06:36;;;;;;;7.00;5.40;;;24.60;62.40;;;;;;5088991;28;20177;-61
2022/09/05 14:09:11;;;;;;;5.20;4.70;;;24.50;64.20;;;;;;5085835;28;20195;-61
2022/09/05 14:12:15;;;;;;;5.90;5.40;;;24.40;64.00;;;;;;5073882;28;20235;-61
2022/09/05 14:14:57;;;;;;;5.90;5.40;;;24.70;65.30;;;;;;5086492;28;20504;-61